createdAt,value
2022-08-03T00:01:27.212Z,20.30
2022-08-03T00:03:30.003Z,20.40
2022-08-03T00:05:33.285Z,20.40
2022-08-03T00:07:36.026Z,20.30
2022-08-03T00:09:38.745Z,20.30
2022-08-03T00:11:42.801Z,20.30
2022-08-03T00:13:45.532Z,20.30
2022-08-03T00:15:48.235Z,20.30
2022-08-03T00:17:53.014Z,20.30
2022-08-03T00:19:56.513Z,20.20
2022-08-03T00:21:59.234Z,20.20
2022-08-03T00:24:01.971Z,20.20
2022-08-03T00:26:04.694Z,20.10
2022-08-03T00:28:09.341Z,20.10
2022-08-03T00:30:12.360Z,20.10
2022-08-03T00:32:18.006Z,20.00
2022-08-03T00:34:30.945Z,20.00
2022-08-03T00:36:39.517Z,20.00
2022-08-03T00:38:42.231Z,20.00
2022-08-03T00:40:44.947Z,19.90
2022-08-03T00:42:51.995Z,19.90
2022-08-03T00:44:56.058Z,19.80
2022-08-03T00:46:58.781Z,19.80
2022-08-03T00:49:03.206Z,19.80
2022-08-03T00:51:06.791Z,19.70
2022-08-03T00:53:12.061Z,19.70
2022-08-03T00:55:14.907Z,19.70
2022-08-03T00:57:17.635Z,19.70
2022-08-03T00:59:20.340Z,19.60
2022-08-03T01:01:24.459Z,19.60
2022-08-03T01:03:27.241Z,19.70
2022-08-03T01:05:30.122Z,19.60
2022-08-03T01:07:43.228Z,19.60
2022-08-03T01:09:50.256Z,19.60
2022-08-03T01:12:00.935Z,19.60
2022-08-03T01:14:18.962Z,19.60
2022-08-03T01:16:35.718Z,19.50
2022-08-03T01:18:42.297Z,19.50
2022-08-03T01:20:47.365Z,19.50
2022-08-03T01:23:04.566Z,19.50
2022-08-03T01:25:10.125Z,19.40
2022-08-03T01:27:14.100Z,19.40
2022-08-03T01:29:44.693Z,19.40
2022-08-03T01:32:58.670Z,19.40
2022-08-03T01:34:14.628Z,19.30
2022-08-03T01:36:19.280Z,19.30
2022-08-03T01:38:25.626Z,19.40
2022-08-03T01:40:28.731Z,19.40
2022-08-03T01:42:31.696Z,19.40
2022-08-03T01:44:38.180Z,19.40
2022-08-03T01:46:47.699Z,19.30
2022-08-03T01:48:51.846Z,19.30
2022-08-03T01:50:54.613Z,19.20
2022-08-03T01:52:57.866Z,19.10
2022-08-03T01:55:00.592Z,19.10
2022-08-03T01:57:03.303Z,19.10
2022-08-03T01:59:06.060Z,19.00
2022-08-03T02:01:08.818Z,19.10
2022-08-03T02:03:13.626Z,19.10
2022-08-03T02:05:16.557Z,19.10
2022-08-03T02:07:19.293Z,19.10
2022-08-03T02:09:22.782Z,19.10
2022-08-03T02:11:25.498Z,18.90
2022-08-03T02:13:28.233Z,18.90
2022-08-03T02:15:31.046Z,18.90
2022-08-03T02:17:39.961Z,18.90
2022-08-03T02:19:45.837Z,18.90
2022-08-03T02:21:56.448Z,18.90
2022-08-03T02:24:04.449Z,18.90
2022-08-03T02:26:10.089Z,19.00
2022-08-03T02:28:15.166Z,19.00
2022-08-03T02:30:18.214Z,18.90
2022-08-03T02:32:22.292Z,18.90
2022-08-03T02:34:26.525Z,18.90
2022-08-03T02:36:31.911Z,18.90
2022-08-03T02:38:36.234Z,18.80
2022-08-03T02:40:38.952Z,18.80
2022-08-03T02:42:41.674Z,18.80
2022-08-03T02:44:47.705Z,18.90
2022-08-03T02:46:50.490Z,18.80
2022-08-03T02:48:53.508Z,18.80
2022-08-03T02:50:57.921Z,18.80
2022-08-03T02:53:04.190Z,18.80
2022-08-03T02:55:07.924Z,18.70
2022-08-03T02:57:10.635Z,18.70
2022-08-03T02:59:13.565Z,18.60
2022-08-03T03:01:16.332Z,18.60
2022-08-03T03:03:19.203Z,18.50
2022-08-03T03:05:55.240Z,18.50
2022-08-03T03:07:52.291Z,18.50
2022-08-03T03:09:57.277Z,18.50
2022-08-03T03:11:59.995Z,18.50
2022-08-03T03:14:02.753Z,18.50
2022-08-03T03:16:06.070Z,18.50
2022-08-03T03:18:10.007Z,18.50
2022-08-03T03:20:13.048Z,18.40
2022-08-03T03:22:16.156Z,18.40
2022-08-03T03:24:19.135Z,18.40
2022-08-03T03:26:23.197Z,18.50
2022-08-03T03:28:26.052Z,18.40
2022-08-03T03:30:28.983Z,18.30
2022-08-03T03:32:31.897Z,18.20
2022-08-03T03:34:34.628Z,18.30
2022-08-03T03:36:37.332Z,18.30
2022-08-03T03:38:40.090Z,18.30
2022-08-03T03:40:42.803Z,18.30
2022-08-03T03:42:46.922Z,18.40
2022-08-03T03:44:49.649Z,18.40
2022-08-03T03:46:52.360Z,18.30
2022-08-03T03:48:55.129Z,18.30
2022-08-03T03:50:58.237Z,18.30
2022-08-03T03:53:01.259Z,18.30
2022-08-03T03:55:04.220Z,18.40
2022-08-03T03:57:06.954Z,18.40
2022-08-03T03:59:11.015Z,18.30
2022-08-03T04:01:14.088Z,18.30
2022-08-03T04:03:16.851Z,18.30
2022-08-03T04:05:37.157Z,18.20
2022-08-03T04:08:03.444Z,18.20
2022-08-03T04:10:26.779Z,18.10
2022-08-03T04:12:29.751Z,18.10
2022-08-03T04:14:34.947Z,18.10
2022-08-03T04:16:43.109Z,18.10
2022-08-03T04:18:48.768Z,18.10
2022-08-03T04:20:51.477Z,18.20
2022-08-03T04:22:54.192Z,18.20
2022-08-03T04:24:58.298Z,18.10
2022-08-03T04:27:01.212Z,18.10
2022-08-03T04:29:04.013Z,18.20
2022-08-03T04:31:08.121Z,18.20
2022-08-03T04:33:10.837Z,18.30
2022-08-03T04:35:13.555Z,18.30
2022-08-03T04:37:19.994Z,18.40
2022-08-03T04:39:26.485Z,18.40
2022-08-03T04:41:29.371Z,18.50
2022-08-03T04:43:32.722Z,18.60
2022-08-03T04:45:35.854Z,18.60
2022-08-03T04:47:40.316Z,18.70
2022-08-03T04:49:43.131Z,18.80
2022-08-03T04:51:45.899Z,18.90
2022-08-03T04:53:48.615Z,18.90
2022-08-03T04:55:52.375Z,19.10
2022-08-03T04:57:55.101Z,19.20
2022-08-03T05:00:02.637Z,19.30
2022-08-03T05:02:07.098Z,19.40
2022-08-03T05:04:11.293Z,19.50
2022-08-03T05:06:14.017Z,19.60
2022-08-03T05:08:20.416Z,19.70
2022-08-03T05:10:30.726Z,19.80
2022-08-03T05:12:33.437Z,20.00
2022-08-03T05:14:37.720Z,20.10
2022-08-03T05:16:40.579Z,20.20
2022-08-03T05:18:43.436Z,20.40
2022-08-03T05:20:47.500Z,20.50
2022-08-03T05:22:50.223Z,20.60
2022-08-03T05:24:52.945Z,20.70
2022-08-03T05:26:55.665Z,20.90
2022-08-03T05:28:58.404Z,21.00
2022-08-03T05:31:01.149Z,21.10
2022-08-03T05:33:04.357Z,21.20
2022-08-03T05:36:02.769Z,21.30
2022-08-03T05:37:32.117Z,21.50
2022-08-03T05:39:35.781Z,21.60
2022-08-03T05:41:38.483Z,21.80
2022-08-03T05:43:41.205Z,21.80
2022-08-03T05:45:44.181Z,21.90
2022-08-03T05:47:47.019Z,22.00
2022-08-03T05:49:49.753Z,22.10
2022-08-03T05:51:59.935Z,22.20
2022-08-03T05:54:13.646Z,22.40
2022-08-03T05:56:16.931Z,22.50
2022-08-03T05:58:19.854Z,22.60
2022-08-03T06:00:22.571Z,22.70
2022-08-03T06:02:28.495Z,22.80
2022-08-03T06:04:31.234Z,22.90
2022-08-03T06:06:33.961Z,23.10
2022-08-03T06:08:36.677Z,23.10
2022-08-03T06:10:40.757Z,23.30
2022-08-03T06:12:44.785Z,23.40
2022-08-03T06:14:47.536Z,23.30
2022-08-03T06:16:50.235Z,23.20
2022-08-03T06:18:52.940Z,23.30
2022-08-03T06:20:55.824Z,23.60
2022-08-03T06:23:00.964Z,23.70
2022-08-03T06:25:06.724Z,23.90
2022-08-03T06:27:13.243Z,24.10
2022-08-03T06:29:15.997Z,24.30
2022-08-03T06:31:18.709Z,24.50
2022-08-03T06:33:21.429Z,24.70
2022-08-03T06:35:24.614Z,24.90
2022-08-03T06:37:28.758Z,25.10
2022-08-03T06:39:31.513Z,25.20
2022-08-03T06:41:38.193Z,25.40
2022-08-03T06:44:02.968Z,25.30
2022-08-03T06:46:07.109Z,25.20
2022-08-03T06:48:10.811Z,25.40
2022-08-03T06:50:16.938Z,25.30
2022-08-03T06:52:38.083Z,25.50
2022-08-03T06:54:41.397Z,25.50
2022-08-03T06:56:44.120Z,25.70
2022-08-03T06:58:48.746Z,25.90
2022-08-03T07:00:51.513Z,26.10
2022-08-03T07:02:58.092Z,26.20
2022-08-03T07:05:01.247Z,26.40
2022-08-03T07:07:03.971Z,26.50
2022-08-03T07:09:06.696Z,26.70
2022-08-03T07:11:09.419Z,26.70
2022-08-03T07:13:12.291Z,26.70
2022-08-03T07:15:20.425Z,26.60
2022-08-03T07:17:40.945Z,26.60
2022-08-03T07:19:43.701Z,26.80
2022-08-03T07:21:47.206Z,26.70
2022-08-03T07:23:49.918Z,26.90
2022-08-03T07:25:52.917Z,27.00
2022-08-03T07:27:55.637Z,26.90
2022-08-03T07:29:59.273Z,27.00
2022-08-03T07:32:03.328Z,27.20
2022-08-03T07:34:06.046Z,27.50
2022-08-03T07:36:08.859Z,27.60
2022-08-03T07:38:11.577Z,27.80
2022-08-03T07:40:14.336Z,27.80
2022-08-03T07:42:17.309Z,27.80
2022-08-03T07:44:20.586Z,27.80
2022-08-03T07:46:23.325Z,27.80
2022-08-03T07:48:31.050Z,27.90
2022-08-03T07:50:33.789Z,27.80
2022-08-03T07:52:53.393Z,27.90
2022-08-03T07:54:56.119Z,27.90
2022-08-03T07:56:58.838Z,28.00
2022-08-03T07:59:02.870Z,28.10
2022-08-03T08:01:05.658Z,28.20
2022-08-03T08:03:08.472Z,28.40
2022-08-03T08:05:12.722Z,28.50
2022-08-03T08:07:15.457Z,28.80
2022-08-03T08:09:18.188Z,29.00
2022-08-03T08:11:22.171Z,29.10
2022-08-03T08:13:25.265Z,29.30
2022-08-03T08:15:28.113Z,29.20
2022-08-03T08:17:30.877Z,29.40
2022-08-03T08:19:33.593Z,29.60
2022-08-03T08:21:53.576Z,29.70
2022-08-03T08:24:10.935Z,29.80
2022-08-03T08:26:20.804Z,30.00
2022-08-03T08:28:30.226Z,30.10
2022-08-03T08:30:36.530Z,30.10
2022-08-03T08:32:39.339Z,30.20
2022-08-03T08:34:42.062Z,30.20
2022-08-03T08:36:46.129Z,30.20
2022-08-03T08:38:49.916Z,30.10
2022-08-03T08:40:52.731Z,30.20
2022-08-03T08:42:58.706Z,30.30
2022-08-03T08:45:02.027Z,30.50
2022-08-03T08:47:04.926Z,30.50
2022-08-03T08:49:08.155Z,30.80
2022-08-03T08:51:10.958Z,30.80
2022-08-03T08:53:17.671Z,31.00
2022-08-03T08:55:22.496Z,31.10
2022-08-03T08:57:42.009Z,31.10
2022-08-03T08:59:49.620Z,30.90
2022-08-03T09:01:57.693Z,30.90
2022-08-03T09:04:00.413Z,31.00
2022-08-03T09:06:03.540Z,31.00
2022-08-03T09:08:06.704Z,31.00
2022-08-03T09:10:13.709Z,31.00
2022-08-03T09:12:39.183Z,31.10
2022-08-03T09:14:49.727Z,31.10
2022-08-03T09:17:03.592Z,31.30
2022-08-03T09:19:13.484Z,31.40
2022-08-03T09:21:36.298Z,31.90
2022-08-03T09:24:01.441Z,31.80
2022-08-03T09:26:06.689Z,31.80
2022-08-03T09:28:10.954Z,31.80
2022-08-03T09:30:19.152Z,31.80
2022-08-03T09:32:37.365Z,31.60
2022-08-03T09:34:40.084Z,31.80
2022-08-03T09:36:43.937Z,31.80
2022-08-03T09:38:50.313Z,31.40
2022-08-03T09:40:58.872Z,31.70
2022-08-03T09:43:03.827Z,31.90
2022-08-03T09:45:07.348Z,32.30
2022-08-03T09:47:12.182Z,32.00
2022-08-03T09:49:14.989Z,31.90
2022-08-03T09:51:32.882Z,32.20
2022-08-03T09:53:59.156Z,32.40
2022-08-03T09:56:33.434Z,32.40
2022-08-03T09:58:28.089Z,32.70
2022-08-03T10:00:31.152Z,32.60
2022-08-03T10:02:33.874Z,32.70
2022-08-03T10:04:37.128Z,32.70
2022-08-03T10:06:39.853Z,32.50
2022-08-03T10:08:42.597Z,32.80
2022-08-03T10:10:45.876Z,32.50
2022-08-03T10:12:49.232Z,33.00
2022-08-03T10:14:53.431Z,33.20
2022-08-03T10:16:56.167Z,33.30
2022-08-03T10:18:58.993Z,33.60
2022-08-03T10:21:04.348Z,33.30
2022-08-03T10:23:07.114Z,33.50
2022-08-03T10:25:12.661Z,33.30
2022-08-03T10:27:16.615Z,33.40
2022-08-03T10:29:22.307Z,33.50
2022-08-03T10:31:26.371Z,33.70
2022-08-03T10:33:51.013Z,33.70
2022-08-03T10:35:54.286Z,33.70
2022-08-03T10:37:59.087Z,33.60
2022-08-03T10:40:01.990Z,33.90
2022-08-03T10:42:05.501Z,33.80
2022-08-03T10:44:18.828Z,33.60
2022-08-03T10:46:21.649Z,33.90
2022-08-03T10:48:25.713Z,33.60
2022-08-03T10:50:29.142Z,33.50
2022-08-03T10:52:39.527Z,33.40
2022-08-03T10:55:03.213Z,34.00
2022-08-03T10:57:24.261Z,34.00
2022-08-03T11:00:14.155Z,33.50
2022-08-03T11:02:16.935Z,33.90
2022-08-03T11:04:21.297Z,34.10
2022-08-03T11:06:25.462Z,33.90
2022-08-03T11:08:29.814Z,34.40
2022-08-03T11:10:32.740Z,34.60
2022-08-03T11:12:35.472Z,34.80
2022-08-03T11:14:46.983Z,35.50
2022-08-03T11:16:50.462Z,35.50
2022-08-03T11:18:59.621Z,35.50
2022-08-03T11:21:04.091Z,34.90
2022-08-03T11:23:06.807Z,35.20
2022-08-03T11:25:53.862Z,35.20
2022-08-03T11:27:33.457Z,35.30
2022-08-03T11:29:36.177Z,35.30
2022-08-03T11:31:50.338Z,35.20
2022-08-03T11:34:05.184Z,36.00
2022-08-03T11:36:09.446Z,36.00
2022-08-03T11:38:12.337Z,36.10
2022-08-03T11:40:36.345Z,35.10
2022-08-03T11:42:44.019Z,34.70
2022-08-03T11:44:47.554Z,35.60
2022-08-03T11:46:50.485Z,35.20
2022-08-03T11:48:53.308Z,34.60
2022-08-03T11:50:56.098Z,35.10
2022-08-03T11:53:00.162Z,35.00
2022-08-03T11:55:03.001Z,35.50
2022-08-03T11:57:05.744Z,35.30
2022-08-03T11:59:18.522Z,35.70
2022-08-03T12:01:24.406Z,36.20
2022-08-03T12:03:27.144Z,36.20
2022-08-03T12:05:37.103Z,36.60
2022-08-03T12:08:03.356Z,36.90
2022-08-03T12:10:08.964Z,37.30
2022-08-03T12:12:11.751Z,37.30
2022-08-03T12:14:48.333Z,37.30
2022-08-03T12:16:40.349Z,36.80
2022-08-03T12:18:43.074Z,37.30
2022-08-03T12:20:45.976Z,36.90
2022-08-03T12:22:48.733Z,36.60
2022-08-03T12:24:51.820Z,36.30
2022-08-03T12:26:59.983Z,36.00
2022-08-03T12:29:02.972Z,36.00
2022-08-03T12:31:07.341Z,36.10
2022-08-03T12:33:25.600Z,35.60
2022-08-03T12:35:29.330Z,36.10
2022-08-03T12:37:32.408Z,35.80
2022-08-03T12:39:35.378Z,36.30
2022-08-03T12:41:38.739Z,36.80
2022-08-03T12:43:50.112Z,37.10
2022-08-03T12:45:52.883Z,37.30
2022-08-03T12:47:56.371Z,37.00
2022-08-03T12:49:59.153Z,37.20
2022-08-03T12:52:07.239Z,37.10
2022-08-03T12:54:10.796Z,36.70
2022-08-03T12:56:13.613Z,36.10
2022-08-03T12:58:31.117Z,36.40
2022-08-03T13:00:35.273Z,36.30
2022-08-03T13:02:38.241Z,36.40
2022-08-03T13:04:41.581Z,36.50
2022-08-03T13:06:44.569Z,36.90
2022-08-03T13:08:48.149Z,36.90
2022-08-03T13:10:51.029Z,37.00
2022-08-03T13:12:53.870Z,36.90
2022-08-03T13:14:57.517Z,37.20
2022-08-03T13:17:01.616Z,36.70
2022-08-03T13:19:04.425Z,36.80
2022-08-03T13:21:07.167Z,36.60
2022-08-03T13:23:15.367Z,36.60
2022-08-03T13:25:25.210Z,36.90
2022-08-03T13:28:04.865Z,37.00
2022-08-03T13:29:50.933Z,36.90
2022-08-03T13:31:53.683Z,37.00
2022-08-03T13:33:57.740Z,36.40
2022-08-03T13:36:00.497Z,36.50
2022-08-03T13:38:03.249Z,36.50
2022-08-03T13:40:07.001Z,36.70
2022-08-03T13:42:10.021Z,36.40
2022-08-03T13:44:29.326Z,36.80
2022-08-03T13:46:32.596Z,36.90
2022-08-03T13:48:37.376Z,37.10
2022-08-03T13:50:43.249Z,37.30
2022-08-03T13:52:46.277Z,37.00
2022-08-03T13:54:49.038Z,37.10
2022-08-03T13:56:55.784Z,37.30
2022-08-03T13:59:00.575Z,37.40
2022-08-03T14:01:03.333Z,37.50
2022-08-03T14:03:13.260Z,37.10
2022-08-03T14:05:16.766Z,36.70
2022-08-03T14:07:21.241Z,36.70
2022-08-03T14:09:24.090Z,36.80
2022-08-03T14:11:26.824Z,36.60
2022-08-03T14:13:49.531Z,36.80
2022-08-03T14:15:52.748Z,36.70
2022-08-03T14:17:56.097Z,36.20
2022-08-03T14:20:01.406Z,35.70
2022-08-03T14:22:06.840Z,35.60
2022-08-03T14:24:11.139Z,35.40
2022-08-03T14:26:14.518Z,35.50
2022-08-03T14:28:17.339Z,35.40
2022-08-03T14:30:20.251Z,35.40
2022-08-03T14:32:22.998Z,35.50
2022-08-03T14:34:25.695Z,35.70
2022-08-03T14:36:30.121Z,35.70
2022-08-03T14:38:32.828Z,35.60
2022-08-03T14:40:36.888Z,35.70
2022-08-03T14:42:39.699Z,35.60
2022-08-03T14:44:42.468Z,35.40
2022-08-03T14:46:45.206Z,35.00
2022-08-03T14:50:28.571Z,34.50
2022-08-03T14:51:10.611Z,34.70
2022-08-03T14:53:13.588Z,34.80
2022-08-03T14:55:16.314Z,34.80
2022-08-03T14:57:20.590Z,34.90
2022-08-03T14:59:23.497Z,34.60
2022-08-03T15:02:03.220Z,34.60
2022-08-03T15:03:48.939Z,34.70
2022-08-03T15:05:52.730Z,34.60
2022-08-03T15:07:55.531Z,34.40
2022-08-03T15:09:59.538Z,34.40
2022-08-03T15:12:05.751Z,34.40
2022-08-03T15:14:09.820Z,34.60
2022-08-03T15:16:12.557Z,34.60
2022-08-03T15:18:15.287Z,34.70
2022-08-03T15:20:28.773Z,34.80
2022-08-03T15:22:35.397Z,34.60
2022-08-03T15:24:38.137Z,34.70
2022-08-03T15:26:41.790Z,34.60
2022-08-03T15:28:44.860Z,34.60
2022-08-03T15:30:48.976Z,34.60
2022-08-03T15:32:51.705Z,34.30
2022-08-03T15:34:55.278Z,34.20
2022-08-03T15:36:58.008Z,34.10
2022-08-03T15:39:00.802Z,34.00
2022-08-03T15:41:03.585Z,33.90
2022-08-03T15:43:06.375Z,33.80
2022-08-03T15:45:09.925Z,33.60
2022-08-03T15:47:13.997Z,33.60
2022-08-03T15:49:17.030Z,33.50
2022-08-03T15:51:19.758Z,33.30
2022-08-03T15:53:22.507Z,33.20
2022-08-03T15:55:25.451Z,33.10
2022-08-03T15:57:28.400Z,33.10
2022-08-03T15:59:31.116Z,33.10
2022-08-03T16:01:33.914Z,33.20
2022-08-03T16:03:38.332Z,33.20
2022-08-03T16:05:41.150Z,33.30
2022-08-03T16:08:03.877Z,33.30
2022-08-03T16:10:08.502Z,33.40
2022-08-03T16:12:15.540Z,33.40
2022-08-03T16:14:35.646Z,33.50
2022-08-03T16:16:40.980Z,33.60
2022-08-03T16:18:45.056Z,33.60
2022-08-03T16:20:47.783Z,33.70
2022-08-03T16:22:50.812Z,33.80
2022-08-03T16:24:53.608Z,33.90
2022-08-03T16:26:56.414Z,33.90
2022-08-03T16:28:59.151Z,33.90
2022-08-03T16:31:01.873Z,33.90
2022-08-03T16:33:04.802Z,33.80
2022-08-03T16:35:09.433Z,33.80
2022-08-03T16:37:38.346Z,33.80
2022-08-03T16:39:41.877Z,33.70
2022-08-03T16:41:53.873Z,33.70
2022-08-03T16:44:08.078Z,33.70
2022-08-03T16:46:12.713Z,33.70
2022-08-03T16:48:15.473Z,33.60
2022-08-03T16:50:20.213Z,33.60
2022-08-03T16:52:23.089Z,33.50
2022-08-03T16:54:28.052Z,33.50
2022-08-03T16:56:32.052Z,33.30
2022-08-03T16:58:42.283Z,33.10
2022-08-03T17:00:46.327Z,33.10
2022-08-03T17:02:49.213Z,33.10
2022-08-03T17:04:52.374Z,33.10
2022-08-03T17:06:57.321Z,33.10
2022-08-03T17:09:00.553Z,33.10
2022-08-03T17:11:03.325Z,33.10
2022-08-03T17:13:06.073Z,33.10
2022-08-03T17:15:10.743Z,32.90
2022-08-03T17:17:16.673Z,32.90
2022-08-03T17:19:19.439Z,32.80
2022-08-03T17:21:24.909Z,32.80
2022-08-03T17:23:39.452Z,32.80
2022-08-03T17:26:01.814Z,32.80
2022-08-03T17:28:51.022Z,32.70
2022-08-03T17:30:48.137Z,32.60
2022-08-03T17:32:52.459Z,32.50
2022-08-03T17:35:00.529Z,32.40
2022-08-03T17:37:04.825Z,32.30
2022-08-03T17:39:09.763Z,32.30
2022-08-03T17:41:12.535Z,32.20
2022-08-03T17:44:13.141Z,32.20
2022-08-03T17:45:52.011Z,32.10
2022-08-03T17:47:56.975Z,32.10
2022-08-03T17:50:00.541Z,32.00
2022-08-03T17:52:06.088Z,32.00
2022-08-03T17:54:18.301Z,31.90
2022-08-03T17:56:44.594Z,31.90
2022-08-03T17:58:54.770Z,31.80
2022-08-03T18:03:59.190Z,31.70
2022-08-03T18:06:10.418Z,31.60
2022-08-03T18:08:18.913Z,31.50
2022-08-03T18:10:29.172Z,31.40
2022-08-03T18:12:31.908Z,31.30
2022-08-03T18:14:39.195Z,31.30
2022-08-03T18:16:44.884Z,31.20
2022-08-03T18:18:53.853Z,31.10
2022-08-03T18:20:57.575Z,31.00
2022-08-03T18:23:04.882Z,31.00
2022-08-03T18:25:09.279Z,30.90
2022-08-03T18:27:19.592Z,30.80
2022-08-03T18:29:22.714Z,30.70
2022-08-03T18:31:33.229Z,30.60
2022-08-03T18:34:19.337Z,30.60
2022-08-03T18:36:11.585Z,30.50
2022-08-03T18:38:21.099Z,30.40
2022-08-03T18:40:26.856Z,30.40
2022-08-03T18:42:33.338Z,30.30
2022-08-03T18:44:37.517Z,30.20
2022-08-03T18:47:15.875Z,30.10
2022-08-03T18:49:29.443Z,30.00
2022-08-03T18:51:43.059Z,30.00
2022-08-03T18:54:03.191Z,29.80
2022-08-03T18:56:10.969Z,29.80
2022-08-03T18:58:19.966Z,29.60
2022-08-03T19:00:24.926Z,29.60
2022-08-03T19:02:50.114Z,29.50
2022-08-03T19:04:54.334Z,29.40
2022-08-03T19:07:02.382Z,29.30
2022-08-03T19:09:06.721Z,29.20
2022-08-03T19:11:15.222Z,29.10
2022-08-03T19:13:36.108Z,29.00
2022-08-03T19:15:50.929Z,28.90
2022-08-03T19:17:55.553Z,28.80
2022-08-03T19:20:01.442Z,28.70
2022-08-03T19:22:05.420Z,28.50
2022-08-03T19:24:13.158Z,28.60
2022-08-03T19:26:29.878Z,28.50
2022-08-03T19:28:35.661Z,28.50
2022-08-03T19:30:39.875Z,28.40
2022-08-03T19:32:48.407Z,28.40
2022-08-03T19:34:51.587Z,28.20
2022-08-03T19:36:54.851Z,28.20
2022-08-03T19:38:57.964Z,28.10
2022-08-03T19:41:03.778Z,28.00
2022-08-03T19:43:10.059Z,27.90
2022-08-03T19:45:17.028Z,27.90
2022-08-03T19:47:23.401Z,27.80
2022-08-03T19:50:04.994Z,27.70
2022-08-03T19:51:58.371Z,27.70
2022-08-03T19:54:05.980Z,27.70
2022-08-03T19:56:12.856Z,27.70
2022-08-03T19:58:17.652Z,27.50
2022-08-03T20:00:34.074Z,27.40
2022-08-03T20:02:41.105Z,27.30
2022-08-03T20:04:44.015Z,27.20
2022-08-03T20:06:47.008Z,27.10
2022-08-03T20:08:52.429Z,27.10
2022-08-03T20:10:55.241Z,27.00
2022-08-03T20:12:58.228Z,26.90
2022-08-03T20:15:00.999Z,26.80
2022-08-03T20:17:05.197Z,26.80
2022-08-03T20:19:14.145Z,26.70
2022-08-03T20:21:18.649Z,26.70
2022-08-03T20:23:21.430Z,26.70
2022-08-03T20:25:38.216Z,26.60
2022-08-03T20:28:07.056Z,26.50
2022-08-03T20:30:09.559Z,26.50
2022-08-03T20:32:13.701Z,26.40
2022-08-03T20:34:17.629Z,26.40
2022-08-03T20:36:20.407Z,26.40
2022-08-03T20:38:27.207Z,26.40
2022-08-03T20:40:30.160Z,26.40
2022-08-03T20:42:32.926Z,26.30
2022-08-03T20:44:35.645Z,26.30
2022-08-03T20:46:50.160Z,26.30
2022-08-03T20:49:00.520Z,26.20
2022-08-03T20:51:19.616Z,26.10
2022-08-03T20:53:57.254Z,26.10
2022-08-03T20:55:47.753Z,26.00
2022-08-03T20:58:05.308Z,25.90
2022-08-03T21:00:11.743Z,25.80
2022-08-03T21:02:19.658Z,25.70
2022-08-03T21:04:40.451Z,25.70
2022-08-03T21:06:53.135Z,25.60
2022-08-03T21:09:03.961Z,25.60
2022-08-03T21:11:07.644Z,25.60
2022-08-03T21:13:04.543Z,31.70
2022-08-03T21:13:17.800Z,25.60
2022-08-03T21:16:12.308Z,25.60
2022-08-03T21:17:49.102Z,25.50
2022-08-03T21:19:53.337Z,25.60
2022-08-03T21:21:56.123Z,25.50
2022-08-03T21:23:59.408Z,25.40
2022-08-03T21:26:02.188Z,25.40
2022-08-03T21:28:05.051Z,25.40
2022-08-03T21:30:09.610Z,25.40
2022-08-03T21:32:16.733Z,25.40
2022-08-03T21:34:36.263Z,25.40
2022-08-03T21:36:40.383Z,25.50
2022-08-03T21:38:43.899Z,25.50
2022-08-03T21:40:51.657Z,25.50
2022-08-03T21:42:54.457Z,25.50
2022-08-03T21:44:57.269Z,25.50
2022-08-03T21:47:00.076Z,25.40
2022-08-03T21:50:04.514Z,25.30
2022-08-03T21:51:26.961Z,25.30
2022-08-03T21:54:02.476Z,25.20
2022-08-03T21:55:55.646Z,25.10
2022-08-03T21:57:59.709Z,25.00
2022-08-03T22:00:05.538Z,24.90
2022-08-03T22:02:11.472Z,24.80
2022-08-03T22:04:51.048Z,24.80
2022-08-03T22:06:49.731Z,24.70
2022-08-03T22:08:53.991Z,24.60
2022-08-03T22:10:56.838Z,24.60
2022-08-03T22:13:00.356Z,24.50
2022-08-03T22:15:04.696Z,24.40
2022-08-03T22:17:07.704Z,24.40
2022-08-03T22:19:11.969Z,24.30
2022-08-03T22:21:15.884Z,24.30
2022-08-03T22:23:21.328Z,24.30
2022-08-03T22:25:28.647Z,24.30
2022-08-03T22:27:31.593Z,24.40
2022-08-03T22:29:34.662Z,24.40
2022-08-03T22:31:58.409Z,24.40
2022-08-03T22:34:00.357Z,24.30
2022-08-03T22:36:03.347Z,24.30
2022-08-03T22:38:07.066Z,24.30
2022-08-03T22:40:11.600Z,24.20
2022-08-03T22:42:16.085Z,24.20
2022-08-03T22:44:18.804Z,24.10
2022-08-03T22:46:22.312Z,24.10
2022-08-03T22:48:25.079Z,24.10
2022-08-03T22:50:33.234Z,24.10
2022-08-03T22:52:37.577Z,23.90
2022-08-03T22:54:40.320Z,23.80
2022-08-03T22:56:43.033Z,23.80
2022-08-03T22:58:47.085Z,23.70
2022-08-03T23:00:54.151Z,23.70
2022-08-03T23:02:56.976Z,23.60
2022-08-03T23:05:02.175Z,23.60
2022-08-03T23:07:05.029Z,23.40
2022-08-03T23:09:08.663Z,23.20
2022-08-03T23:11:12.593Z,23.00
2022-08-03T23:13:15.692Z,23.00
2022-08-03T23:15:19.756Z,23.00
2022-08-03T23:17:23.632Z,23.10
2022-08-03T23:19:27.387Z,23.10
2022-08-03T23:22:01.014Z,23.10
2022-08-03T23:23:55.629Z,23.10
2022-08-03T23:25:58.360Z,23.10
2022-08-03T23:28:05.407Z,23.10
2022-08-03T23:30:10.072Z,23.00
2022-08-03T23:32:14.120Z,23.10
2022-08-03T23:34:34.271Z,23.00
2022-08-03T23:36:37.004Z,23.10
2022-08-03T23:38:39.763Z,23.10
2022-08-03T23:40:42.471Z,23.10
2022-08-03T23:42:45.323Z,23.10
2022-08-03T23:44:48.050Z,23.10
2022-08-03T23:46:50.768Z,23.20
2022-08-03T23:48:56.707Z,23.20
2022-08-03T23:51:00.551Z,23.10
2022-08-03T23:53:06.691Z,23.10
2022-08-03T23:55:14.490Z,23.00
2022-08-03T23:57:19.992Z,23.00
2022-08-03T23:59:27.384Z,23.00
